This is the latest recevied weather packets stored in our database for station/object WX6YYZ. If no packets are shown the sender has not sent any weather packets the latest 10 day(s).
| Time | Temp. | Humidity | Pressure | Rain* | Wind** | Luminosity | Snow |
|---|---|---|---|---|---|---|---|
| 1777474962 | 13.33° C | 74% | 1017.9 hPa | 0 mm | - | - | - |
| 1777472853 | 11.11° C | 81% | 1017.9 hPa | 0 mm | - | - | - |
| 1777471285 | 10.56° C | 81% | 1017.9 hPa | 0 mm | - | - | - |
| 1777470683 | 10° C | 81% | 1017.9 hPa | 0 mm | - | - | - |
| 1777470082 | 10° C | 81% | 1017.9 hPa | 0 mm | - | - | - |
| 1777469147 | 10° C | 81% | 1017.9 hPa | 0 mm | - | - | - |
| 1777467611 | 10.56° C | 80% | 1017.9 hPa | 0 mm | - | - | - |
| 1777465123 | 11.67° C | 77% | 1017.6 hPa | 0 mm | - | - | - |
| 1777462414 | 11.11° C | 77% | 1017.6 hPa | 0 mm | - | - | - |
| 1777459975 | 11.67° C | 74% | 1016.9 hPa | 0 mm | - | - | - |
| 1777457568 | 11.67° C | 76% | 1016.9 hPa | 0 mm | - | - | - |
| 1777456332 | 11.67° C | 75% | 1016.9 hPa | 0 mm | - | - | - |
| 1777455066 | 11.67° C | 76% | 1017.3 hPa | 0 mm | - | - | - |
| 1777451387 | 12.78° C | 73% | 1017.9 hPa | 0 mm | - | - | - |
| 1777443433 | 13.89° C | 67% | 1018.3 hPa | 0 mm | - | - | - |
| 1777442467 | 14.44° C | 66% | 1018.3 hPa | 0 mm | - | - | - |
| 1777442136 | 14.44° C | 66% | 1018.3 hPa | 0 mm | - | - | - |
| 1777441835 | 14.44° C | 66% | 1018.3 hPa | 0 mm | - | - | - |
| 1777441503 | 14.44° C | 65% | 1018.3 hPa | 0 mm | - | - | - |
| 1777439965 | 14.44° C | 63% | 1018.3 hPa | 0 mm | - | - | - |
| 1777438761 | 15° C | 61% | 1018.3 hPa | 0 mm | - | - | - |
| 1777438159 | 15° C | 60% | 1017.9 hPa | 0 mm | - | - | - |
| 1777437256 | 15.56° C | 58% | 1017.6 hPa | 0 mm | - | - | - |
| 1777434185 | 16.11° C | 55% | 1017.3 hPa | 0 mm | - | - | - |
| 1777432284 | 16.67° C | 53% | 1016.6 hPa | 0 mm | - | - | - |
* Rain latest hour (hover to see other rain measurements)
** Current wind speed in m/s (hover to see current wind gust speed)